Главная страница
METAR-TAF:

METAR-TAF

Аэропорты :

Fort Good Hope, Северо-Западные Территории, Канада

широта: 66-16N, долгота: 128-37W, высота над уровнем моря: 60 м

Текущие метеонаблюдения

Эта сводка был подготовлена 4 часа и 43 минут назад, в 23:00 UTC
Ветер 8 Узел от западный
Температура 1°C
Влажность 86%
Давление 1015 hPa
Видимость: 24.1 км
Рассеянная облачность на высоте 2000 фута

METAR: CYGH 242300Z 28008KT 15SM BKN020 01/M01 A2996 RMK SC5 SLP152

Время: 21:43 (03:43 UTC)

Прогноз

Эта сводка был подготовлена 7 часа и 37 минут назад, в 20:06 UTC
Прогноз действительный с 24-го 20 UTC до 24-го 23 UTC
Ветер 10 Узел от западный с порывами до 20 Узел
Видимость: 10 км
Отдельные облака на высоте 800 фута
Рассеянная облачность на высоте 2500 фута
временами
С 24-го 20 UTC до 24-го 23 UTC
Рассеянная облачность на высоте 800 фута

TAF: CYGH 242006Z 2420/2423 28010G20KT P6SM SCT008 BKN025 TEMPO 2420/2423 BKN008 RMK NXT FCST WILL BE ISSUED AT 251415Z

Метеонаблюдения и прогнозы для более 4000 аэропортов (сводки METAR и TAF).

Имеющиеся станции представлены на карте желтыми и красными точками.

Чтобы увидеть название станции, наведите на нее мышь.

Затем щелкните, чтобы увидеть метеонаблюдения и метеопрогнозы.

Управление картой: чтобы увеличить масштаб, щелкните зеленые кнопки с черным крестиком; чтобы уменьшить масштаб, щелкните зеленую кнопку с тире; для просмотра соседних карт щелкайте зеленые стрелки.


METAR-TAF: